Time;durP1;ratioP1;P1;durP2;ratioP2;P2;SDS_P1;SDS_P2;PMS_P1;PMS_P2;Temp;Humidity;BMP_temperature;BMP_pressure;BME280_temperature;BME280_humidity;BME280_pressure;Samples;Min_cycle;Max_cycle;Signal;HPM_P1;HPM_P2
2022/08/29 00:00:13;;;;;;;4.27;4.17;;;;;;;;;;4987456;28;20539;-70
2022/08/29 00:02:40;;;;;;;5.03;4.07;;;;;;;;;;5003580;28;20433;-69
2022/08/29 00:05:06;;;;;;;4.87;4.60;;;;;;;;;;4990986;28;20464;-67
2022/08/29 00:07:32;;;;;;;3.40;3.40;;;;;;;;;;4989113;28;20447;-69
2022/08/29 00:09:58;;;;;;;4.80;4.50;;;;;;;;;;4989132;28;20445;-68
2022/08/29 00:12:25;;;;;;;4.57;4.37;;;;;;;;;;4990045;28;20845;-69
2022/08/29 00:14:51;;;;;;;4.50;4.20;;;;;;;;;;4989222;28;20846;-68
2022/08/29 00:17:16;;;;;;;4.93;4.73;;;;;;;;;;4987668;28;20539;-69
2022/08/29 00:19:42;;;;;;;4.13;3.80;;;;;;;;;;4990163;28;20492;-68
2022/08/29 00:22:08;;;;;;;5.30;5.10;;;;;;;;;;4990070;28;20416;-67
2022/08/29 00:24:34;;;;;;;4.03;3.93;;;;;;;;;;4990421;28;20835;-69
2022/08/29 00:27:00;;;;;;;4.83;4.53;;;;;;;;;;4988062;28;20441;-69
2022/08/29 00:29:26;;;;;;;5.00;4.40;;;;;;;;;;4990715;28;20433;-70
2022/08/29 00:31:52;;;;;;;5.77;5.17;;;;;;;;;;5001904;28;20774;-69
2022/08/29 00:34:18;;;;;;;4.70;4.50;;;;;;;;;;4989707;28;20437;-69
2022/08/29 00:36:44;;;;;;;4.27;4.13;;;;;;;;;;4990510;28;20429;-69
2022/08/29 00:39:10;;;;;;;3.30;3.20;;;;;;;;;;4987254;28;20481;-67
2022/08/29 00:41:36;;;;;;;3.60;3.40;;;;;;;;;;4989165;28;20449;-69
2022/08/29 00:44:02;;;;;;;4.03;3.83;;;;;;;;;;4988712;28;20515;-66
2022/08/29 00:46:40;;;;;;;3.80;3.70;;;;;;;;;;4988825;28;20909;-69
2022/08/29 00:49:09;;;;;;;3.30;3.20;;;;;;;;;;4990360;28;20476;-69
2022/08/29 00:51:35;;;;;;;3.50;3.40;;;;;;;;;;4987084;28;20433;-67
2022/08/29 00:54:03;;;;;;;3.13;3.03;;;;;;;;;;4989570;28;20459;-70
2022/08/29 00:56:29;;;;;;;5.27;4.80;;;;;;;;;;4990096;28;20440;-70
2022/08/29 00:58:59;;;;;;;8.10;3.80;;;;;;;;;;4989427;28;20484;-68
2022/08/29 01:01:25;;;;;;;4.23;3.93;;;;;;;;;;4989655;28;20460;-66
2022/08/29 01:03:51;;;;;;;4.13;3.20;;;;;;;;;;4984578;28;20546;-69
2022/08/29 01:06:17;;;;;;;4.03;3.83;;;;;;;;;;4988120;28;20445;-68
2022/08/29 01:08:43;;;;;;;4.13;3.90;;;;;;;;;;4988468;28;20929;-69
2022/08/29 01:13:56;;;;;;;3.20;3.20;;;;;;;;;;4990583;28;20563;-69
2022/08/29 01:16:23;;;;;;;4.83;4.33;;;;;;;;;;4989792;28;22212;-70
2022/08/29 01:18:51;;;;;;;3.80;3.70;;;;;;;;;;4991156;28;20480;-68
2022/08/29 01:21:21;;;;;;;4.67;4.50;;;;;;;;;;4993113;28;20524;-68
2022/08/29 01:23:50;;;;;;;4.70;4.50;;;;;;;;;;4993382;28;20447;-68
2022/08/29 01:26:16;;;;;;;4.30;4.00;;;;;;;;;;4990743;28;20452;-69
2022/08/29 01:28:44;;;;;;;3.87;3.57;;;;;;;;;;4992387;28;20477;-68
2022/08/29 01:31:11;;;;;;;4.73;4.53;;;;;;;;;;4991866;28;20963;-69
2022/08/29 01:33:40;;;;;;;5.60;5.10;;;;;;;;;;4991476;28;20948;-68
2022/08/29 01:36:07;;;;;;;3.20;3.10;;;;;;;;;;4993357;28;20471;-69
2022/08/29 01:38:33;;;;;;;4.50;4.10;;;;;;;;;;4993267;28;20559;-67
2022/08/29 01:40:59;;;;;;;4.90;4.60;;;;;;;;;;4990371;28;20440;-68
2022/08/29 01:43:26;;;;;;;5.50;5.20;;;;;;;;;;5007142;28;20447;-69
2022/08/29 01:45:52;;;;;;;5.43;5.10;;;;;;;;;;4992345;28;20412;-69
2022/08/29 01:48:19;;;;;;;4.70;4.30;;;;;;;;;;5007930;28;21032;-69
2022/08/29 01:50:45;;;;;;;4.77;4.57;;;;;;;;;;4991474;28;20444;-67
2022/08/29 01:53:11;;;;;;;6.60;4.10;;;;;;;;;;4991778;28;20491;-67
2022/08/29 01:55:37;;;;;;;4.30;4.00;;;;;;;;;;4993031;28;20417;-68
2022/08/29 01:58:04;;;;;;;4.30;4.20;;;;;;;;;;4991478;28;20528;-70
2022/08/29 02:00:30;;;;;;;5.77;5.17;;;;;;;;;;5006780;28;20846;-68
2022/08/29 02:02:59;;;;;;;5.10;4.60;;;;;;;;;;4991925;28;20464;-69
2022/08/29 02:05:25;;;;;;;5.17;4.87;;;;;;;;;;4992916;28;20429;-68
2022/08/29 02:07:51;;;;;;;4.87;4.57;;;;;;;;;;4992153;28;20464;-68
2022/08/29 02:10:17;;;;;;;4.83;4.63;;;;;;;;;;4991076;28;20447;-67
2022/08/29 02:12:43;;;;;;;5.07;4.90;;;;;;;;;;4992031;28;20504;-67
2022/08/29 02:15:10;;;;;;;4.70;4.60;;;;;;;;;;4992198;28;20636;-67
2022/08/29 02:17:36;;;;;;;11.17;4.20;;;;;;;;;;4992353;28;20433;-70
2022/08/29 02:20:06;;;;;;;4.47;4.27;;;;;;;;;;4990375;28;20544;-69
2022/08/29 02:22:32;;;;;;;6.40;4.97;;;;;;;;;;4987826;28;20433;-67
2022/08/29 02:24:58;;;;;;;5.00;4.80;;;;;;;;;;4989984;28;20878;-67
2022/08/29 02:27:24;;;;;;;5.33;4.93;;;;;;;;;;4991167;28;20453;-68
2022/08/29 02:29:51;;;;;;;6.00;5.50;;;;;;;;;;4992440;28;20448;-68
2022/08/29 02:32:17;;;;;;;4.60;4.30;;;;;;;;;;4989048;28;20417;-67
2022/08/29 02:34:44;;;;;;;5.67;5.27;;;;;;;;;;4991062;28;20425;-67
2022/08/29 02:37:10;;;;;;;4.60;4.23;;;;;;;;;;5006052;28;20437;-68
2022/08/29 02:39:36;;;;;;;5.40;5.13;;;;;;;;;;4992248;28;20543;-68
2022/08/29 02:42:02;;;;;;;6.23;4.90;;;;;;;;;;4991081;28;20851;-68
2022/08/29 02:44:28;;;;;;;4.90;4.60;;;;;;;;;;4992193;28;20433;-69
2022/08/29 02:46:55;;;;;;;6.43;4.70;;;;;;;;;;4986858;28;20428;-69
2022/08/29 02:49:21;;;;;;;5.00;4.80;;;;;;;;;;4991664;28;20967;-67
2022/08/29 02:51:47;;;;;;;4.63;4.43;;;;;;;;;;5006816;28;20425;-67
2022/08/29 02:54:13;;;;;;;4.77;4.60;;;;;;;;;;5004699;28;20443;-68
2022/08/29 02:56:39;;;;;;;5.17;4.33;;;;;;;;;;4990802;28;20468;-67
2022/08/29 02:59:07;;;;;;;5.40;5.00;;;;;;;;;;4989721;28;20492;-67
2022/08/29 03:01:33;;;;;;;5.40;5.10;;;;;;;;;;4990972;28;20425;-67
2022/08/29 03:03:59;;;;;;;3.33;3.20;;;;;;;;;;4990090;28;20516;-69
2022/08/29 03:06:25;;;;;;;16.23;6.13;;;;;;;;;;4991865;28;20421;-70
2022/08/29 03:08:52;;;;;;;4.57;4.40;;;;;;;;;;4991677;28;20480;-69
2022/08/29 03:11:18;;;;;;;5.60;4.73;;;;;;;;;;4988318;28;20500;-69
2022/08/29 03:13:44;;;;;;;5.07;4.67;;;;;;;;;;4990215;28;20433;-69
2022/08/29 03:16:11;;;;;;;5.83;5.57;;;;;;;;;;4989814;28;20432;-69
2022/08/29 03:18:37;;;;;;;6.03;5.77;;;;;;;;;;4991084;28;20473;-69
2022/08/29 03:21:03;;;;;;;5.00;4.70;;;;;;;;;;4991149;28;20894;-68
2022/08/29 03:23:29;;;;;;;8.17;5.30;;;;;;;;;;4989293;28;20512;-69
2022/08/29 03:25:55;;;;;;;6.70;6.20;;;;;;;;;;4991221;28;20428;-70
2022/08/29 03:28:21;;;;;;;7.40;5.70;;;;;;;;;;4991150;28;20476;-71
2022/08/29 03:30:47;;;;;;;5.67;5.40;;;;;;;;;;4989466;28;20579;-69
2022/08/29 03:33:13;;;;;;;13.33;6.97;;;;;;;;;;5005715;28;20903;-69
2022/08/29 03:35:39;;;;;;;6.43;5.93;;;;;;;;;;5004658;28;20499;-68
2022/08/29 03:38:05;;;;;;;7.07;6.50;;;;;;;;;;4989411;28;20425;-68
2022/08/29 03:40:31;;;;;;;8.23;5.87;;;;;;;;;;4991102;28;20436;-68
2022/08/29 03:42:57;;;;;;;6.07;5.57;;;;;;;;;;5003926;28;20444;-70
2022/08/29 03:45:25;;;;;;;5.70;4.70;;;;;;;;;;4990362;28;20440;-69
2022/08/29 03:47:52;;;;;;;5.00;4.70;;;;;;;;;;4989480;28;20516;-70
2022/08/29 03:50:18;;;;;;;4.83;4.43;;;;;;;;;;5003582;28;20540;-69
2022/08/29 03:52:45;;;;;;;5.10;4.73;;;;;;;;;;4989568;28;20437;-69
2022/08/29 03:55:12;;;;;;;5.00;4.83;;;;;;;;;;4989002;28;20436;-69
2022/08/29 03:57:38;;;;;;;8.13;5.27;;;;;;;;;;4990827;28;20475;-67
2022/08/29 04:00:11;;;;;;;11.10;5.07;;;;;;;;;;4987965;28;20846;-68
2022/08/29 04:02:37;;;;;;;2.97;2.83;;;;;;;;;;4987370;28;20951;-70
2022/08/29 04:05:06;;;;;;;6.77;5.77;;;;;;;;;;4989310;28;20832;-69
2022/08/29 04:07:37;;;;;;;6.23;5.53;;;;;;;;;;4991004;28;20717;-68
2022/08/29 04:10:07;;;;;;;5.27;4.87;;;;;;;;;;4984564;28;21119;-67
2022/08/29 04:12:33;;;;;;;5.73;5.33;;;;;;;;;;4986913;28;20421;-68
2022/08/29 04:14:59;;;;;;;12.00;5.83;;;;;;;;;;4985912;28;20447;-68
2022/08/29 04:17:25;;;;;;;9.77;6.80;;;;;;;;;;4987914;28;20433;-65
2022/08/29 04:19:51;;;;;;;12.67;6.43;;;;;;;;;;5003907;28;20616;-67
2022/08/29 04:22:18;;;;;;;8.50;5.57;;;;;;;;;;4989785;28;20929;-66
2022/08/29 04:24:43;;;;;;;6.83;6.20;;;;;;;;;;5004814;28;20440;-65
2022/08/29 04:27:09;;;;;;;5.60;5.27;;;;;;;;;;4986508;28;20429;-67
2022/08/29 04:29:37;;;;;;;4.60;4.50;;;;;;;;;;4987404;28;20205;-66
2022/08/29 04:32:03;;;;;;;4.97;4.67;;;;;;;;;;4986806;28;20554;-70
2022/08/29 04:34:29;;;;;;;8.90;4.87;;;;;;;;;;4987641;28;20429;-69
2022/08/29 04:36:55;;;;;;;4.30;4.20;;;;;;;;;;4989402;28;20440;-67
2022/08/29 04:39:21;;;;;;;5.17;4.97;;;;;;;;;;4982074;28;20490;-66
2022/08/29 04:41:47;;;;;;;6.23;5.77;;;;;;;;;;4984810;28;20805;-67
2022/08/29 04:44:13;;;;;;;5.67;5.37;;;;;;;;;;4989152;28;20968;-65
2022/08/29 04:46:39;;;;;;;8.23;5.77;;;;;;;;;;4992309;28;20437;-66
2022/08/29 04:49:05;;;;;;;7.07;6.40;;;;;;;;;;4991557;28;20620;-66
2022/08/29 04:51:35;;;;;;;13.20;6.17;;;;;;;;;;5006445;28;20439;-66
2022/08/29 04:54:02;;;;;;;6.47;5.50;;;;;;;;;;4991099;28;20436;-66
2022/08/29 04:56:28;;;;;;;6.00;5.53;;;;;;;;;;4992169;28;20452;-67
2022/08/29 04:58:54;;;;;;;9.23;5.53;;;;;;;;;;4990027;28;20489;-66
2022/08/29 05:01:21;;;;;;;15.20;5.33;;;;;;;;;;5007247;28;20440;-66
2022/08/29 05:03:47;;;;;;;6.40;5.77;;;;;;;;;;4990309;28;20527;-66
2022/08/29 05:06:14;;;;;;;5.17;4.80;;;;;;;;;;4991324;28;20437;-66
2022/08/29 05:08:43;;;;;;;6.60;4.70;;;;;;;;;;4991449;28;20827;-67
2022/08/29 05:11:10;;;;;;;4.90;4.50;;;;;;;;;;4992545;28;20945;-68
2022/08/29 05:13:36;;;;;;;5.10;4.77;;;;;;;;;;5007181;28;20436;-69
2022/08/29 05:16:06;;;;;;;4.20;3.77;;;;;;;;;;5006211;28;20830;-67
2022/08/29 05:18:32;;;;;;;4.90;4.03;;;;;;;;;;4983957;28;20468;-68
2022/08/29 05:20:58;;;;;;;4.87;3.77;;;;;;;;;;4991758;28;20552;-68
2022/08/29 05:23:25;;;;;;;9.53;4.23;;;;;;;;;;4990749;28;20527;-70
2022/08/29 05:25:57;;;;;;;3.73;3.50;;;;;;;;;;4992111;28;21012;-69
2022/08/29 05:28:24;;;;;;;6.50;5.00;;;;;;;;;;4987291;28;20487;-67
2022/08/29 05:30:50;;;;;;;3.40;3.20;;;;;;;;;;4990177;28;20451;-68
2022/08/29 05:33:16;;;;;;;4.20;3.37;;;;;;;;;;4991503;28;20944;-69
2022/08/29 05:35:42;;;;;;;4.43;4.03;;;;;;;;;;4991584;28;20447;-69
2022/08/29 05:38:08;;;;;;;5.37;3.90;;;;;;;;;;4990620;28;20428;-66
2022/08/29 05:40:35;;;;;;;3.23;3.03;;;;;;;;;;4985073;28;20572;-68
2022/08/29 05:43:01;;;;;;;6.03;3.13;;;;;;;;;;5003877;28;20428;-69
2022/08/29 05:45:27;;;;;;;6.23;3.60;;;;;;;;;;4991846;28;20436;-68
2022/08/29 05:47:54;;;;;;;6.23;3.77;;;;;;;;;;4983396;28;20480;-68
2022/08/29 05:50:20;;;;;;;5.23;3.60;;;;;;;;;;4990016;28;20496;-68
2022/08/29 05:52:46;;;;;;;4.50;3.20;;;;;;;;;;5000894;28;20941;-67
2022/08/29 05:55:12;;;;;;;5.47;3.30;;;;;;;;;;4988933;28;20503;-67
2022/08/29 05:57:38;;;;;;;6.10;3.30;;;;;;;;;;4991434;28;20439;-66
2022/08/29 06:00:06;;;;;;;4.73;3.10;;;;;;;;;;4991328;28;20551;-64
2022/08/29 06:02:32;;;;;;;3.97;3.70;;;;;;;;;;4988401;28;21013;-68
2022/08/29 06:04:58;;;;;;;4.20;3.90;;;;;;;;;;4988284;28;20436;-69
2022/08/29 06:07:24;;;;;;;7.17;4.00;;;;;;;;;;4991240;28;20834;-72
2022/08/29 06:09:53;;;;;;;4.73;3.60;;;;;;;;;;4990340;28;20483;-73
2022/08/29 06:12:19;;;;;;;3.93;3.63;;;;;;;;;;4988462;28;20468;-75
2022/08/29 06:14:45;;;;;;;4.07;3.67;;;;;;;;;;4990757;28;20494;-73
2022/08/29 06:17:11;;;;;;;4.00;3.50;;;;;;;;;;4989813;28;20499;-61
2022/08/29 06:19:38;;;;;;;3.13;2.93;;;;;;;;;;4987481;28;20983;-64
2022/08/29 06:22:05;;;;;;;4.07;3.70;;;;;;;;;;4991683;28;20947;-67
2022/08/29 06:24:32;;;;;;;3.13;2.93;;;;;;;;;;4988970;28;20464;-66
2022/08/29 06:26:58;;;;;;;3.53;3.23;;;;;;;;;;4987966;28;20448;-62
2022/08/29 06:29:25;;;;;;;5.33;3.20;;;;;;;;;;5003282;28;21021;-67
2022/08/29 06:31:52;;;;;;;4.20;3.47;;;;;;;;;;4980277;28;20479;-61
2022/08/29 06:34:19;;;;;;;3.17;2.97;;;;;;;;;;4985595;28;20808;-62
2022/08/29 06:36:45;;;;;;;3.90;3.03;;;;;;;;;;4986739;28;20429;-66
2022/08/29 06:39:11;;;;;;;3.97;3.10;;;;;;;;;;4988629;28;20530;-66
2022/08/29 06:41:38;;;;;;;5.07;3.40;;;;;;;;;;4989529;28;20961;-66
2022/08/29 06:44:05;;;;;;;4.30;3.90;;;;;;;;;;4985851;28;20580;-66
2022/08/29 06:46:35;;;;;;;11.53;3.23;;;;;;;;;;4990190;28;20807;-68
2022/08/29 06:49:02;;;;;;;5.60;3.93;;;;;;;;;;4986755;28;20425;-68
2022/08/29 06:51:31;;;;;;;6.70;3.73;;;;;;;;;;4987976;28;20435;-65
2022/08/29 06:53:58;;;;;;;3.80;3.50;;;;;;;;;;4990800;28;20850;-67
2022/08/29 06:56:24;;;;;;;9.53;4.13;;;;;;;;;;4986209;28;20434;-67
2022/08/29 06:58:50;;;;;;;3.50;3.30;;;;;;;;;;4991065;28;20472;-67
2022/08/29 07:01:17;;;;;;;7.50;3.70;;;;;;;;;;4989351;28;20464;-67
2022/08/29 07:03:43;;;;;;;2.97;2.43;;;;;;;;;;5006641;28;20190;-67
2022/08/29 07:06:09;;;;;;;3.97;3.70;;;;;;;;;;4990993;28;20425;-67
2022/08/29 07:08:35;;;;;;;5.00;2.67;;;;;;;;;;4990791;28;20448;-67
2022/08/29 07:11:02;;;;;;;4.17;3.60;;;;;;;;;;4984965;28;20479;-67
2022/08/29 07:13:28;;;;;;;6.17;3.23;;;;;;;;;;4991418;28;21553;-67
2022/08/29 07:15:54;;;;;;;5.03;4.33;;;;;;;;;;4989153;28;20430;-67
2022/08/29 07:18:20;;;;;;;3.60;3.50;;;;;;;;;;4989767;28;20700;-67
2022/08/29 07:20:46;;;;;;;5.93;3.17;;;;;;;;;;5006409;28;20965;-67
2022/08/29 07:23:12;;;;;;;4.87;3.33;;;;;;;;;;4990884;28;20421;-67
2022/08/29 07:25:38;;;;;;;4.30;3.43;;;;;;;;;;4986386;28;20437;-67
2022/08/29 07:28:04;;;;;;;5.83;3.37;;;;;;;;;;4991016;28;20464;-67
2022/08/29 07:30:31;;;;;;;3.40;3.30;;;;;;;;;;5004126;28;20941;-67
2022/08/29 07:32:57;;;;;;;13.87;4.07;;;;;;;;;;4986616;28;20447;-67
2022/08/29 07:35:24;;;;;;;4.50;3.77;;;;;;;;;;4987630;28;20524;-67
2022/08/29 07:37:50;;;;;;;3.90;3.67;;;;;;;;;;4989966;28;20432;-67
2022/08/29 07:40:16;;;;;;;4.20;3.80;;;;;;;;;;4990373;28;20523;-67
2022/08/29 07:42:42;;;;;;;3.73;3.50;;;;;;;;;;4990157;28;20453;-67
2022/08/29 07:45:09;;;;;;;3.20;2.90;;;;;;;;;;4988971;28;20436;-67
2022/08/29 07:47:35;;;;;;;5.40;3.33;;;;;;;;;;4986338;28;20808;-67
2022/08/29 07:50:01;;;;;;;6.33;4.00;;;;;;;;;;4987270;28;20448;-67
2022/08/29 07:52:28;;;;;;;4.13;3.80;;;;;;;;;;5005731;28;20845;-67
2022/08/29 07:54:54;;;;;;;7.20;3.93;;;;;;;;;;4990839;28;20440;-67
2022/08/29 07:57:21;;;;;;;8.33;3.53;;;;;;;;;;4988008;28;20456;-67
2022/08/29 07:59:47;;;;;;;5.37;3.80;;;;;;;;;;4987484;28;20496;-67
2022/08/29 08:02:13;;;;;;;4.43;3.97;;;;;;;;;;4987330;28;20544;-67
2022/08/29 08:04:39;;;;;;;18.57;4.00;;;;;;;;;;4990731;28;20516;-67
2022/08/29 08:07:05;;;;;;;5.03;3.40;;;;;;;;;;4987307;28;20911;-67
2022/08/29 08:09:32;;;;;;;4.67;4.40;;;;;;;;;;4990690;28;20433;-67
2022/08/29 08:11:58;;;;;;;19.93;4.20;;;;;;;;;;4990563;28;20433;-67
2022/08/29 08:14:24;;;;;;;9.03;3.80;;;;;;;;;;4989868;28;20516;-67
2022/08/29 08:16:50;;;;;;;7.03;3.93;;;;;;;;;;4999367;28;20571;-67
2022/08/29 08:19:17;;;;;;;8.43;2.90;;;;;;;;;;4987599;28;20489;-67
2022/08/29 08:21:43;;;;;;;5.33;3.90;;;;;;;;;;4988062;28;20929;-67
2022/08/29 08:24:09;;;;;;;7.07;3.97;;;;;;;;;;5004851;28;20421;-67
2022/08/29 08:26:35;;;;;;;3.73;3.43;;;;;;;;;;4988301;28;20425;-67
2022/08/29 08:29:01;;;;;;;6.00;3.97;;;;;;;;;;4980438;28;20853;-67
2022/08/29 08:31:27;;;;;;;5.13;3.70;;;;;;;;;;4988539;28;20432;-67
2022/08/29 08:33:53;;;;;;;5.00;3.63;;;;;;;;;;4988680;28;20455;-67
2022/08/29 08:36:24;;;;;;;8.90;4.10;;;;;;;;;;4986615;28;21008;-67
2022/08/29 08:38:51;;;;;;;3.90;3.60;;;;;;;;;;4984639;28;20511;-67
2022/08/29 08:41:24;;;;;;;5.73;3.50;;;;;;;;;;4987092;28;20456;-67
2022/08/29 08:43:54;;;;;;;6.10;4.30;;;;;;;;;;4988848;28;20437;-67
2022/08/29 08:46:41;;;;;;;4.10;3.83;;;;;;;;;;4986495;28;20820;-67
2022/08/29 08:49:12;;;;;;;4.40;3.97;;;;;;;;;;4983941;28;21673;-67
2022/08/29 08:51:42;;;;;;;6.30;3.53;;;;;;;;;;4986460;28;20440;-67
2022/08/29 08:54:12;;;;;;;4.50;4.07;;;;;;;;;;4989598;28;21114;-67
2022/08/29 08:56:41;;;;;;;4.27;3.97;;;;;;;;;;5003882;28;20440;-67
2022/08/29 08:59:15;;;;;;;6.57;4.50;;;;;;;;;;4986017;28;20473;-67
2022/08/29 09:01:44;;;;;;;3.73;3.53;;;;;;;;;;4988800;28;20429;-67
2022/08/29 09:04:16;;;;;;;7.20;4.07;;;;;;;;;;4990075;28;20449;-67
2022/08/29 09:06:42;;;;;;;5.03;4.33;;;;;;;;;;4989927;28;20425;-67
2022/08/29 09:09:11;;;;;;;4.50;3.80;;;;;;;;;;4988483;28;20439;-67
2022/08/29 09:11:40;;;;;;;4.50;4.13;;;;;;;;;;4988280;28;20294;-67
2022/08/29 09:14:13;;;;;;;3.40;3.20;;;;;;;;;;4987719;28;20788;-67
2022/08/29 09:16:40;;;;;;;4.13;3.90;;;;;;;;;;4988777;28;20523;-67
2022/08/29 09:19:09;;;;;;;4.50;4.03;;;;;;;;;;4988843;28;20515;-67
2022/08/29 09:21:51;;;;;;;4.40;4.00;;;;;;;;;;4989547;28;20444;-67
2022/08/29 09:24:24;;;;;;;5.10;4.77;;;;;;;;;;4985182;28;20437;-67
2022/08/29 09:26:50;;;;;;;8.73;3.73;;;;;;;;;;4990087;28;20783;-67
2022/08/29 09:29:19;;;;;;;3.10;2.87;;;;;;;;;;4987787;28;20980;-67
2022/08/29 09:31:46;;;;;;;3.30;3.00;;;;;;;;;;4988388;28;20437;-67
2022/08/29 09:34:14;;;;;;;4.17;3.80;;;;;;;;;;4989954;28;20444;-67
2022/08/29 09:36:40;;;;;;;4.33;4.10;;;;;;;;;;4992049;28;20447;-67
2022/08/29 09:39:30;;;;;;;6.53;4.97;;;;;;;;;;4988248;28;20477;-67
2022/08/29 09:42:13;;;;;;;2.80;2.70;;;;;;;;;;4992524;28;20498;-67
2022/08/29 09:44:40;;;;;;;7.00;4.03;;;;;;;;;;4992621;28;20844;-67
2022/08/29 09:47:22;;;;;;;3.43;3.23;;;;;;;;;;4986192;28;20449;-67
2022/08/29 09:50:01;;;;;;;4.40;3.77;;;;;;;;;;4988085;28;20480;-67
2022/08/29 09:52:27;;;;;;;3.97;3.30;;;;;;;;;;4983425;28;20491;-67
2022/08/29 09:54:53;;;;;;;3.73;3.40;;;;;;;;;;4989609;28;20436;-67
2022/08/29 09:57:24;;;;;;;6.10;3.83;;;;;;;;;;4991515;28;20425;-66
2022/08/29 10:00:09;;;;;;;3.83;3.50;;;;;;;;;;4990181;28;20499;-67
2022/08/29 10:02:49;;;;;;;4.27;4.00;;;;;;;;;;4992112;28;20479;-67
2022/08/29 10:05:29;;;;;;;9.90;3.80;;;;;;;;;;4990930;28;20421;-67
2022/08/29 10:07:56;;;;;;;3.40;3.30;;;;;;;;;;4992867;28;20424;-67
2022/08/29 10:10:29;;;;;;;8.70;4.80;;;;;;;;;;4990603;28;20800;-67
2022/08/29 10:13:04;;;;;;;5.03;4.33;;;;;;;;;;4992251;28;20436;-67
2022/08/29 10:15:38;;;;;;;5.33;3.93;;;;;;;;;;4992514;28;20519;-67
2022/08/29 10:18:26;;;;;;;2.90;2.80;;;;;;;;;;4991359;28;20495;-67
2022/08/29 10:21:06;;;;;;;4.00;3.60;;;;;;;;;;4991235;28;20457;-67
2022/08/29 10:23:44;;;;;;;3.70;3.50;;;;;;;;;;4990220;28;20444;-67
2022/08/29 10:26:25;;;;;;;4.13;4.03;;;;;;;;;;5004684;28;20777;-68
2022/08/29 10:29:08;;;;;;;4.60;4.23;;;;;;;;;;4990208;28;20479;-66
2022/08/29 10:31:53;;;;;;;4.43;3.90;;;;;;;;;;4990410;28;20446;-68
2022/08/29 10:34:42;;;;;;;5.63;4.13;;;;;;;;;;5006293;28;20429;-68
2022/08/29 10:37:17;;;;;;;9.43;5.20;;;;;;;;;;4977661;28;20503;-68
2022/08/29 10:39:57;;;;;;;4.53;4.13;;;;;;;;;;5002017;28;21003;-68
2022/08/29 10:42:24;;;;;;;7.33;4.43;;;;;;;;;;4990174;28;20425;-68
2022/08/29 10:44:53;;;;;;;4.97;4.00;;;;;;;;;;4991851;28;20429;-68
2022/08/29 10:47:25;;;;;;;3.10;3.00;;;;;;;;;;4989586;28;21031;-68
2022/08/29 10:49:57;;;;;;;8.03;3.63;;;;;;;;;;4990173;28;20444;-68
2022/08/29 10:52:41;;;;;;;8.60;4.27;;;;;;;;;;4988038;28;20457;-69
2022/08/29 10:55:22;;;;;;;7.70;3.90;;;;;;;;;;4991841;28;22060;-68
2022/08/29 10:58:00;;;;;;;5.03;3.80;;;;;;;;;;4991876;28;20830;-67
2022/08/29 11:00:39;;;;;;;3.40;3.30;;;;;;;;;;4989596;28;20490;-68
2022/08/29 11:03:14;;;;;;;3.40;3.20;;;;;;;;;;4990255;28;20924;-68
2022/08/29 11:05:44;;;;;;;3.80;3.60;;;;;;;;;;4989104;28;20439;-68
2022/08/29 11:08:31;;;;;;;3.97;3.67;;;;;;;;;;4990039;28;20472;-69
2022/08/29 11:10:57;;;;;;;3.73;3.57;;;;;;;;;;4989697;28;20960;-69
2022/08/29 11:13:26;;;;;;;4.20;4.10;;;;;;;;;;4985356;28;20445;-68
2022/08/29 11:16:04;;;;;;;3.40;3.37;;;;;;;;;;4987999;28;20508;-68
2022/08/29 11:18:36;;;;;;;10.40;4.13;;;;;;;;;;4986607;28;20448;-68
2022/08/29 11:21:15;;;;;;;5.30;3.70;;;;;;;;;;4984610;28;20476;-68
2022/08/29 11:23:42;;;;;;;3.60;3.40;;;;;;;;;;4985371;28;20472;-67
2022/08/29 11:26:20;;;;;;;7.00;3.40;;;;;;;;;;4999499;28;20441;-68
2022/08/29 11:28:59;;;;;;;6.57;4.30;;;;;;;;;;4988202;28;20517;-68
2022/08/29 11:31:43;;;;;;;4.60;4.20;;;;;;;;;;4989241;28;20433;-66
2022/08/29 11:34:09;;;;;;;5.40;4.00;;;;;;;;;;4988878;28;20845;-69
2022/08/29 11:36:49;;;;;;;13.40;4.20;;;;;;;;;;4982918;28;20953;-68
2022/08/29 11:39:24;;;;;;;4.87;4.10;;;;;;;;;;4990242;28;20987;-68
2022/08/29 11:41:53;;;;;;;4.03;3.80;;;;;;;;;;4990538;28;20500;-68
2022/08/29 11:44:25;;;;;;;4.47;4.27;;;;;;;;;;4982147;28;20438;-67
2022/08/29 11:46:51;;;;;;;3.67;3.57;;;;;;;;;;4984453;28;20881;-68
2022/08/29 11:49:36;;;;;;;3.90;3.80;;;;;;;;;;4989742;28;20956;-68
2022/08/29 11:52:07;;;;;;;6.13;3.63;;;;;;;;;;4986662;28;20425;-68
2022/08/29 11:54:33;;;;;;;3.03;2.93;;;;;;;;;;4986786;28;20576;-68
2022/08/29 11:56:59;;;;;;;4.57;3.87;;;;;;;;;;4989117;28;20992;-68
2022/08/29 11:59:44;;;;;;;4.77;4.33;;;;;;;;;;4986982;28;21145;-68
2022/08/29 12:02:30;;;;;;;4.80;4.50;;;;;;;;;;4988637;28;20324;-68
2022/08/29 12:04:56;;;;;;;5.33;4.83;;;;;;;;;;5002104;28;20528;-68
2022/08/29 12:07:32;;;;;;;4.00;3.77;;;;;;;;;;4985808;28;20434;-68
2022/08/29 12:10:00;;;;;;;4.40;4.10;;;;;;;;;;4987615;28;20431;-67
2022/08/29 12:12:40;;;;;;;3.73;3.53;;;;;;;;;;4988091;28;20998;-67
2022/08/29 12:15:24;;;;;;;4.23;3.93;;;;;;;;;;4987514;28;20420;-68
2022/08/29 12:17:50;;;;;;;3.87;3.77;;;;;;;;;;4989282;28;20433;-67
2022/08/29 12:20:34;;;;;;;5.07;4.57;;;;;;;;;;4990188;28;20972;-68
2022/08/29 12:23:01;;;;;;;4.77;4.27;;;;;;;;;;4984237;28;20770;-68
2022/08/29 12:25:27;;;;;;;4.27;4.10;;;;;;;;;;4986040;28;20437;-68
2022/08/29 12:28:26;;;;;;;5.83;5.53;;;;;;;;;;4984412;28;20483;-68
2022/08/29 12:31:01;;;;;;;5.17;4.27;;;;;;;;;;4986028;28;20448;-67
2022/08/29 12:33:27;;;;;;;4.97;4.60;;;;;;;;;;5002724;28;20519;-67
2022/08/29 12:35:57;;;;;;;4.40;3.83;;;;;;;;;;4984088;28;20540;-69
2022/08/29 12:38:26;;;;;;;4.27;3.90;;;;;;;;;;4983863;28;20186;-68
2022/08/29 12:41:08;;;;;;;4.47;4.27;;;;;;;;;;4986734;28;20989;-67
2022/08/29 12:43:41;;;;;;;6.30;4.77;;;;;;;;;;4989450;28;20779;-67
2022/08/29 12:46:29;;;;;;;4.43;4.20;;;;;;;;;;4987430;28;20432;-67
2022/08/29 12:49:07;;;;;;;4.63;3.73;;;;;;;;;;4984847;28;20449;-67
2022/08/29 12:51:35;;;;;;;7.53;5.13;;;;;;;;;;4985505;28;20782;-67
2022/08/29 12:54:01;;;;;;;4.40;3.73;;;;;;;;;;4987460;28;20962;-67
2022/08/29 12:56:27;;;;;;;10.50;4.20;;;;;;;;;;4985377;28;20790;-67
2022/08/29 12:58:53;;;;;;;4.40;4.30;;;;;;;;;;4988123;28;20476;-67
2022/08/29 13:01:19;;;;;;;6.73;4.20;;;;;;;;;;4986131;28;21008;-68
2022/08/29 13:03:54;;;;;;;8.87;4.70;;;;;;;;;;4988443;28;20210;-67
2022/08/29 13:06:21;;;;;;;3.90;3.80;;;;;;;;;;4992572;28;20932;-67
2022/08/29 13:08:48;;;;;;;4.80;4.40;;;;;;;;;;4991410;28;20456;-67
2022/08/29 13:11:18;;;;;;;8.27;3.87;;;;;;;;;;5007249;28;20498;-67
2022/08/29 13:13:44;;;;;;;3.80;3.60;;;;;;;;;;4989576;28;20925;-66
2022/08/29 13:16:22;;;;;;;4.77;4.37;;;;;;;;;;4992060;28;20444;-67
2022/08/29 13:18:48;;;;;;;3.40;3.10;;;;;;;;;;4992592;28;20197;-67
2022/08/29 13:21:24;;;;;;;4.67;4.27;;;;;;;;;;4991601;28;20456;-67
2022/08/29 13:23:58;;;;;;;4.80;3.90;;;;;;;;;;4991118;28;20436;-67
2022/08/29 13:26:26;;;;;;;4.00;3.90;;;;;;;;;;4989789;28;20808;-66
2022/08/29 13:28:55;;;;;;;7.80;4.10;;;;;;;;;;4992550;28;20511;-67
2022/08/29 13:31:32;;;;;;;3.50;3.40;;;;;;;;;;4992190;28;20444;-66
2022/08/29 13:33:58;;;;;;;6.97;4.30;;;;;;;;;;4990233;28;20944;-67
2022/08/29 13:36:27;;;;;;;4.90;4.60;;;;;;;;;;4991262;28;20444;-67
2022/08/29 13:39:11;;;;;;;3.80;3.50;;;;;;;;;;4988471;28;20217;-66
2022/08/29 13:41:37;;;;;;;4.63;4.23;;;;;;;;;;5005696;28;20441;-67
2022/08/29 13:44:03;;;;;;;4.13;3.83;;;;;;;;;;4992349;28;20437;-67
2022/08/29 13:46:30;;;;;;;4.20;3.90;;;;;;;;;;4990915;28;20445;-67
2022/08/29 13:48:59;;;;;;;4.67;4.37;;;;;;;;;;4990382;28;20469;-66
2022/08/29 13:51:25;;;;;;;4.80;4.40;;;;;;;;;;4991407;28;20828;-67
2022/08/29 13:53:52;;;;;;;4.17;3.87;;;;;;;;;;4990619;28;20508;-65
2022/08/29 13:56:20;;;;;;;4.00;3.80;;;;;;;;;;4992211;28;20488;-66
2022/08/29 13:58:46;;;;;;;4.90;4.53;;;;;;;;;;4990781;28;20438;-66
2022/08/29 14:01:12;;;;;;;4.40;4.23;;;;;;;;;;4991298;28;20453;-67
2022/08/29 14:03:38;;;;;;;4.03;3.83;;;;;;;;;;4991611;28;20429;-67
2022/08/29 14:06:04;;;;;;;4.53;4.30;;;;;;;;;;4988496;28;20449;-66
2022/08/29 14:08:31;;;;;;;4.40;3.70;;;;;;;;;;4989499;28;20193;-67
2022/08/29 14:10:57;;;;;;;4.83;4.53;;;;;;;;;;4992853;28;20425;-67
2022/08/29 14:13:23;;;;;;;6.33;4.30;;;;;;;;;;4991623;28;20420;-67
2022/08/29 14:15:49;;;;;;;3.27;3.27;;;;;;;;;;4991882;28;21664;-67
2022/08/29 14:18:15;;;;;;;4.03;3.90;;;;;;;;;;4988488;28;20433;-67
2022/08/29 14:20:41;;;;;;;5.10;4.67;;;;;;;;;;4990577;28;20480;-67
2022/08/29 14:23:07;;;;;;;5.20;4.87;;;;;;;;;;4990994;28;20784;-67
2022/08/29 14:25:33;;;;;;;4.10;3.90;;;;;;;;;;4989252;28;20495;-67
2022/08/29 14:27:59;;;;;;;4.23;4.03;;;;;;;;;;4986967;28;20575;-67
2022/08/29 14:30:25;;;;;;;4.63;4.23;;;;;;;;;;4991617;28;20534;-67
2022/08/29 14:32:51;;;;;;;4.30;3.90;;;;;;;;;;4992075;28;20425;-67
2022/08/29 14:35:18;;;;;;;4.20;4.00;;;;;;;;;;4991936;28;20791;-67
2022/08/29 14:37:44;;;;;;;4.20;4.00;;;;;;;;;;4989261;28;20445;-67
2022/08/29 14:40:10;;;;;;;4.73;4.07;;;;;;;;;;4990886;28;20563;-67
2022/08/29 14:42:36;;;;;;;3.83;3.53;;;;;;;;;;4991280;28;20843;-67
2022/08/29 14:45:03;;;;;;;3.93;3.80;;;;;;;;;;5006622;28;20456;-67
2022/08/29 14:47:29;;;;;;;4.10;3.90;;;;;;;;;;5004834;28;20445;-67
2022/08/29 14:49:55;;;;;;;4.03;3.83;;;;;;;;;;4989882;28;20808;-67
2022/08/29 14:52:21;;;;;;;4.20;3.90;;;;;;;;;;5005437;28;20720;-67
2022/08/29 14:54:47;;;;;;;6.17;4.20;;;;;;;;;;4990945;28;20488;-67